Time;durP1;ratioP1;P1;durP2;ratioP2;P2;SDS_P1;SDS_P2;PMS_P1;PMS_P2;Temp;Humidity;BMP_temperature;BMP_pressure;BME280_temperature;BME280_humidity;BME280_pressure;Samples;Min_cycle;Max_cycle;Signal;HPM_P1;HPM_P2
2023/02/23 00:01:21;;;;;;;190.07;96.80;;;9.70;99.90;;;;;;5015714;28;20049;-79
2023/02/23 00:03:48;;;;;;;181.77;96.10;;;9.80;99.90;;;;;;5019387;28;20025;-80
2023/02/23 00:06:15;;;;;;;196.50;97.72;;;9.80;99.90;;;;;;5030897;28;20033;-79
2023/02/23 00:08:40;;;;;;;198.18;99.15;;;9.80;99.90;;;;;;5031452;28;20457;-80
2023/02/23 00:11:10;;;;;;;203.63;103.55;;;9.80;99.90;;;;;;5030696;28;20108;-81
2023/02/23 00:13:36;;;;;;;195.15;100.72;;;9.80;99.90;;;;;;5030654;28;20025;-81
2023/02/23 00:16:07;;;;;;;199.65;99.57;;;9.80;99.90;;;;;;5031307;28;20029;-79
2023/02/23 00:18:43;;;;;;;201.32;103.47;;;9.80;99.90;;;;;;5032925;28;20128;-80
2023/02/23 00:21:13;;;;;;;205.55;101.32;;;9.80;99.90;;;;;;5033493;28;20123;-80
2023/02/23 00:23:50;;;;;;;210.48;103.45;;;9.90;99.90;;;;;;5015488;28;20029;-80
2023/02/23 00:26:19;;;;;;;205.85;102.22;;;9.90;99.90;;;;;;5033221;28;20064;-80
2023/02/23 00:28:46;;;;;;;201.60;103.40;;;9.90;99.90;;;;;;5033117;28;20095;-79
2023/02/23 00:31:12;;;;;;;210.38;103.70;;;9.90;99.90;;;;;;5018068;28;20026;-80
2023/02/23 00:33:40;;;;;;;214.57;105.25;;;9.90;99.90;;;;;;5010271;28;20033;-76
2023/02/23 00:36:13;;;;;;;203.05;101.63;;;9.90;99.90;;;;;;5022268;28;20021;-76
2023/02/23 00:38:40;;;;;;;201.88;99.68;;;9.90;99.90;;;;;;5030835;28;20024;-76
2023/02/23 00:41:11;;;;;;;201.48;100.30;;;9.90;99.90;;;;;;5046255;28;20017;-76
2023/02/23 00:43:48;;;;;;;210.88;104.05;;;9.90;99.90;;;;;;5030693;28;20032;-76
2023/02/23 00:46:16;;;;;;;209.50;101.18;;;9.90;99.90;;;;;;5027698;28;20373;-76
2023/02/23 00:48:46;;;;;;;198.63;102.10;;;10.00;99.90;;;;;;5031093;28;20493;-76
2023/02/23 00:51:12;;;;;;;212.98;101.28;;;10.00;99.90;;;;;;5030900;28;20381;-76
2023/02/23 00:53:38;;;;;;;204.98;102.78;;;10.00;99.90;;;;;;5023288;28;20022;-76
2023/02/23 00:56:05;;;;;;;204.45;100.03;;;10.00;99.90;;;;;;5030564;28;20276;-76
2023/02/23 00:58:31;;;;;;;201.20;101.28;;;10.00;99.90;;;;;;5030317;28;20087;-76
2023/02/23 01:00:58;;;;;;;201.93;105.75;;;10.00;99.90;;;;;;5028636;28;20033;-76
2023/02/23 01:03:25;;;;;;;219.60;106.57;;;10.00;99.90;;;;;;5016584;28;20018;-76
2023/02/23 01:05:50;;;;;;;219.20;108.47;;;10.00;99.90;;;;;;5031578;28;20021;-76
2023/02/23 01:08:17;;;;;;;215.00;105.32;;;10.00;99.90;;;;;;5031652;28;20056;-76
2023/02/23 01:10:45;;;;;;;223.07;109.50;;;10.00;99.90;;;;;;5031399;28;20028;-76
2023/02/23 01:13:11;;;;;;;222.55;107.05;;;10.10;99.90;;;;;;5027376;28;20500;-76
2023/02/23 01:15:42;;;;;;;225.35;107.95;;;10.00;99.90;;;;;;5031361;28;20013;-76
2023/02/23 01:18:09;;;;;;;212.20;103.72;;;10.00;99.90;;;;;;5031410;28;20022;-76
2023/02/23 01:20:35;;;;;;;219.40;109.18;;;10.00;99.90;;;;;;5031337;28;20053;-76
2023/02/23 01:23:02;;;;;;;214.77;105.95;;;10.00;99.90;;;;;;5013343;28;20049;-76
2023/02/23 01:25:28;;;;;;;230.55;110.72;;;10.00;99.90;;;;;;5013683;28;20083;-76
2023/02/23 01:27:54;;;;;;;216.95;105.65;;;10.10;99.90;;;;;;5022282;28;20029;-76
2023/02/23 01:30:20;;;;;;;222.27;108.85;;;10.10;99.90;;;;;;5031159;28;20508;-76
2023/02/23 01:32:46;;;;;;;218.82;108.32;;;10.10;99.90;;;;;;5027314;28;20021;-76
2023/02/23 01:35:12;;;;;;;222.32;106.82;;;10.10;99.90;;;;;;5031299;28;20025;-76
2023/02/23 01:37:39;;;;;;;219.10;106.03;;;10.10;99.90;;;;;;5031212;28;20031;-76
2023/02/23 01:40:13;;;;;;;216.10;108.88;;;10.10;99.90;;;;;;5031183;28;20034;-77
2023/02/23 01:42:41;;;;;;;222.07;107.40;;;10.10;99.90;;;;;;5030991;28;20116;-76
2023/02/23 01:45:16;;;;;;;211.23;104.93;;;10.00;99.90;;;;;;5032589;28;20095;-76
2023/02/23 01:47:45;;;;;;;208.65;102.10;;;10.00;99.90;;;;;;5031913;28;20116;-76
2023/02/23 01:50:10;;;;;;;219.90;108.47;;;10.00;99.90;;;;;;5034748;28;20040;-76
2023/02/23 01:52:38;;;;;;;215.30;107.88;;;10.00;99.90;;;;;;5034966;28;20108;-76
2023/02/23 01:55:05;;;;;;;216.90;106.95;;;10.10;99.90;;;;;;5031166;28;20032;-76
2023/02/23 01:57:31;;;;;;;222.50;108.40;;;10.10;99.90;;;;;;5025622;28;20056;-76
2023/02/23 01:59:57;;;;;;;215.82;105.50;;;10.10;99.90;;;;;;5016435;28;20065;-76
2023/02/23 02:02:32;;;;;;;217.32;107.45;;;10.10;99.90;;;;;;5034774;28;20308;-76
2023/02/23 02:04:59;;;;;;;225.02;107.43;;;10.10;99.90;;;;;;5028179;28;20064;-76
2023/02/23 02:07:29;;;;;;;228.27;111.05;;;10.10;99.90;;;;;;5034731;28;20504;-76
2023/02/23 02:12:38;;;;;;;;;;;10.20;99.90;;;;;;5035036;28;20540;-76
2023/02/23 02:15:15;;;;;;;221.73;107.18;;;10.20;99.90;;;;;;5034393;28;20438;-76
2023/02/23 02:18:02;;;;;;;212.43;106.05;;;10.20;99.90;;;;;;5016753;28;20112;-76
2023/02/23 02:20:39;;;;;;;216.90;107.30;;;10.10;99.90;;;;;;5032883;28;20033;-76
2023/02/23 02:23:18;;;;;;;221.25;107.47;;;10.10;99.90;;;;;;5031625;28;20026;-76
2023/02/23 02:25:53;;;;;;;233.73;108.18;;;10.10;99.90;;;;;;5034438;28;20030;-76
2023/02/23 02:28:46;;;;;;;217.80;107.25;;;10.10;99.90;;;;;;5034474;28;20021;-76
2023/02/23 02:31:55;;;;;;;223.43;108.22;;;10.10;99.90;;;;;;5015070;28;20121;-76
2023/02/23 02:34:33;;;;;;;205.98;104.53;;;10.10;99.90;;;;;;5032322;28;20507;-77
2023/02/23 02:37:10;;;;;;;212.32;105.70;;;10.10;99.90;;;;;;5042449;28;20080;-76
2023/02/23 02:39:52;;;;;;;220.30;108.47;;;10.10;99.90;;;;;;5025336;28;20032;-76
2023/02/23 02:42:18;;;;;;;223.20;108.47;;;10.10;99.90;;;;;;5030695;28;20543;-76
2023/02/23 02:44:56;;;;;;;225.25;107.80;;;10.10;99.90;;;;;;5013223;28;20026;-76
2023/02/23 02:47:27;;;;;;;223.75;108.28;;;10.10;99.90;;;;;;5031608;28;20026;-76
2023/02/23 02:50:09;;;;;;;217.63;106.20;;;10.10;99.90;;;;;;5049449;28;20044;-76
2023/02/23 02:52:55;;;;;;;;;;;10.10;99.90;;;;;;5031080;28;20031;-76
2023/02/23 02:55:32;;;;;;;209.32;102.55;;;10.00;99.90;;;;;;5031617;28;19909;-77
2023/02/23 02:58:06;;;;;;;229.63;108.05;;;10.00;99.90;;;;;;5030902;28;20037;-76
2023/02/23 04:19:32;;;;;;;202.88;98.43;;;10.00;99.90;;;;;;5032345;28;20482;-76
2023/02/23 04:21:58;;;;;;;198.20;100.00;;;10.00;99.90;;;;;;5023210;28;20033;-76
2023/02/23 04:24:24;;;;;;;204.18;102.18;;;10.00;99.90;;;;;;5031982;28;20053;-76
2023/02/23 04:26:49;;;;;;;211.63;100.70;;;10.00;99.90;;;;;;5032207;28;20026;-76
2023/02/23 04:29:15;;;;;;;205.52;101.30;;;10.00;99.90;;;;;;5032131;28;20121;-76
2023/02/23 04:31:40;;;;;;;216.27;102.70;;;10.00;99.90;;;;;;5025621;28;20026;-76
2023/02/23 04:34:07;;;;;;;211.18;100.28;;;10.00;99.90;;;;;;5009903;28;20474;-76
2023/02/23 04:36:32;;;;;;;202.40;100.65;;;10.00;99.90;;;;;;5014400;28;20087;-76
2023/02/23 04:38:58;;;;;;;204.48;99.40;;;10.00;99.90;;;;;;5031893;28;20029;-76
2023/02/23 04:41:24;;;;;;;202.05;98.95;;;10.00;99.90;;;;;;5031817;28;20397;-76
2023/02/23 04:43:49;;;;;;;204.65;100.57;;;10.00;99.90;;;;;;5003827;28;20432;-76
2023/02/23 04:46:15;;;;;;;211.95;102.72;;;10.00;99.90;;;;;;5030793;28;20033;-76
2023/02/23 04:48:41;;;;;;;205.55;100.57;;;10.00;99.90;;;;;;5031955;28;20029;-76
2023/02/23 04:51:06;;;;;;;200.32;98.53;;;10.00;99.90;;;;;;5031773;28;20028;-76
2023/02/23 04:53:32;;;;;;;203.15;98.25;;;10.00;99.90;;;;;;5022808;28;20060;-76
2023/02/23 04:55:58;;;;;;;201.48;98.90;;;10.00;99.90;;;;;;5031657;28;20026;-76
2023/02/23 04:58:23;;;;;;;197.95;97.85;;;10.00;99.90;;;;;;5013523;28;20100;-77
2023/02/23 05:00:49;;;;;;;188.95;96.18;;;10.00;99.90;;;;;;5027804;28;20489;-76
2023/02/23 05:03:16;;;;;;;200.60;98.32;;;10.00;99.90;;;;;;5031663;28;20398;-76
2023/02/23 05:05:43;;;;;;;198.98;94.97;;;10.00;99.90;;;;;;5013904;28;20044;-76
2023/02/23 05:08:08;;;;;;;191.50;96.72;;;10.00;99.90;;;;;;5031535;28;20032;-77
2023/02/23 05:10:34;;;;;;;192.00;95.30;;;10.10;99.90;;;;;;5006145;28;20033;-76
2023/02/23 05:13:00;;;;;;;195.52;96.22;;;10.10;99.90;;;;;;5031477;28;20030;-76
2023/02/23 05:15:26;;;;;;;196.27;97.00;;;10.10;99.90;;;;;;5031557;28;20067;-76
2023/02/23 05:17:55;;;;;;;199.02;97.65;;;10.10;99.90;;;;;;5046885;28;20032;-76
2023/02/23 05:20:21;;;;;;;193.48;98.70;;;10.10;99.90;;;;;;5013589;28;20060;-76
2023/02/23 05:22:47;;;;;;;202.52;97.82;;;10.10;99.90;;;;;;5035519;28;20512;-77
2023/02/23 05:25:13;;;;;;;183.65;91.75;;;10.10;99.90;;;;;;5035448;28;20091;-76
2023/02/23 05:27:40;;;;;;;191.20;95.65;;;10.10;99.90;;;;;;5035416;28;20025;-76
2023/02/23 05:30:06;;;;;;;189.32;93.70;;;10.10;99.90;;;;;;5034984;28;20037;-76
2023/02/23 05:32:33;;;;;;;207.40;97.60;;;10.00;99.90;;;;;;5031275;28;20029;-76
2023/02/23 05:34:59;;;;;;;191.05;95.40;;;10.00;99.90;;;;;;5017316;28;20048;-76
2023/02/23 05:37:25;;;;;;;197.48;95.35;;;10.00;99.90;;;;;;5026210;28;20049;-76
2023/02/23 05:39:50;;;;;;;193.95;94.85;;;10.00;99.90;;;;;;5035227;28;20068;-76
2023/02/23 05:42:16;;;;;;;194.25;94.07;;;10.00;99.90;;;;;;5009625;28;20026;-76
2023/02/23 05:44:42;;;;;;;187.57;92.32;;;10.10;99.90;;;;;;5017233;28;20026;-76
2023/02/23 05:47:07;;;;;;;193.45;97.05;;;10.00;99.90;;;;;;5017402;28;20021;-76
2023/02/23 05:49:33;;;;;;;195.30;95.70;;;10.00;99.90;;;;;;5035013;28;20075;-76
2023/02/23 05:51:59;;;;;;;186.68;94.70;;;10.00;99.90;;;;;;5016758;28;20029;-76
2023/02/23 05:54:25;;;;;;;184.32;91.97;;;10.00;99.90;;;;;;5034574;28;20040;-76
2023/02/23 05:56:50;;;;;;;187.85;93.43;;;10.00;99.90;;;;;;5034796;28;20029;-76
2023/02/23 05:59:16;;;;;;;192.50;93.65;;;10.00;99.90;;;;;;5034218;28;20049;-76
2023/02/23 06:01:42;;;;;;;198.40;95.45;;;10.00;99.90;;;;;;5008686;28;20061;-77
2023/02/23 06:04:07;;;;;;;175.57;90.22;;;10.00;99.90;;;;;;5034230;28;20037;-76
2023/02/23 06:06:33;;;;;;;187.82;93.05;;;10.00;99.90;;;;;;5034309;28;20034;-76
2023/02/23 06:09:00;;;;;;;184.20;94.07;;;10.00;99.90;;;;;;5033981;28;20611;-76
2023/02/23 06:11:26;;;;;;;181.10;89.72;;;10.00;99.90;;;;;;5017917;28;20112;-77
2023/02/23 06:13:51;;;;;;;183.07;95.05;;;10.10;99.90;;;;;;5033858;28;20113;-76
2023/02/23 06:16:17;;;;;;;190.93;93.00;;;10.00;99.90;;;;;;5034067;28;20022;-76
2023/02/23 06:18:43;;;;;;;188.73;93.55;;;10.10;99.90;;;;;;5034036;28;20077;-76
2023/02/23 06:21:09;;;;;;;184.98;90.70;;;10.00;99.90;;;;;;5033719;28;20864;-76
2023/02/23 06:23:34;;;;;;;185.52;91.20;;;10.00;99.90;;;;;;5033935;28;20436;-76
2023/02/23 06:26:03;;;;;;;175.52;91.45;;;10.00;99.90;;;;;;5015911;28;20464;-76
2023/02/23 06:28:29;;;;;;;186.93;92.88;;;10.00;99.90;;;;;;5034061;28;20029;-76
2023/02/23 06:30:55;;;;;;;181.15;90.15;;;10.00;99.90;;;;;;5033425;28;20478;-77
2023/02/23 06:33:22;;;;;;;183.68;92.15;;;10.00;99.90;;;;;;5030136;28;20021;-76
2023/02/23 06:35:48;;;;;;;176.95;89.53;;;10.00;99.90;;;;;;5016326;28;20386;-76
2023/02/23 06:38:13;;;;;;;175.40;89.97;;;10.00;99.90;;;;;;5034040;28;20184;-76
2023/02/23 06:40:40;;;;;;;173.23;90.45;;;10.10;99.90;;;;;;5033833;28;20048;-76
2023/02/23 06:43:06;;;;;;;183.02;88.43;;;10.00;99.90;;;;;;5016234;28;20029;-77
2023/02/23 06:45:31;;;;;;;181.27;89.68;;;10.00;99.90;;;;;;5008480;28;20026;-76
2023/02/23 06:48:00;;;;;;;189.80;93.43;;;10.00;99.90;;;;;;5033801;28;20405;-76
2023/02/23 06:50:27;;;;;;;180.77;93.00;;;10.10;99.90;;;;;;5033796;28;20030;-76
2023/02/23 06:52:52;;;;;;;177.80;88.15;;;10.10;99.90;;;;;;5033728;28;20052;-77
2023/02/23 06:55:18;;;;;;;172.65;90.70;;;10.10;99.90;;;;;;5029945;28;20513;-76
2023/02/23 06:57:43;;;;;;;176.80;89.43;;;10.10;99.90;;;;;;5033691;28;20126;-76
2023/02/23 07:00:16;;;;;;;178.82;90.13;;;10.10;99.90;;;;;;5015199;28;20072;-76
2023/02/23 07:02:43;;;;;;;179.68;89.80;;;10.10;99.90;;;;;;5046918;28;20036;-76
2023/02/23 07:05:10;;;;;;;180.68;88.88;;;10.20;99.90;;;;;;5032524;28;20494;-77
2023/02/23 07:07:35;;;;;;;178.80;89.70;;;10.20;99.90;;;;;;5013769;28;20042;-76
2023/02/23 07:10:01;;;;;;;183.00;91.88;;;10.10;99.90;;;;;;5033573;28;20040;-77
2023/02/23 07:12:28;;;;;;;178.32;88.22;;;10.10;99.90;;;;;;5033776;28;20029;-76
2023/02/23 07:14:54;;;;;;;182.82;90.88;;;10.20;99.90;;;;;;5033975;28;20033;-76
2023/02/23 07:17:20;;;;;;;173.18;88.00;;;10.20;99.90;;;;;;5034310;28;20022;-76
2023/02/23 07:19:45;;;;;;;177.90;90.93;;;10.20;99.90;;;;;;5002081;28;20104;-76
2023/02/23 07:22:11;;;;;;;173.80;90.28;;;10.20;99.90;;;;;;5000132;28;20496;-76
2023/02/23 07:24:37;;;;;;;177.35;90.35;;;10.20;99.90;;;;;;5034035;28;20091;-76
2023/02/23 07:27:03;;;;;;;175.13;90.45;;;10.20;99.90;;;;;;5016380;28;20049;-76
2023/02/23 07:29:29;;;;;;;182.07;90.90;;;10.20;99.90;;;;;;5034132;28;20495;-76
2023/02/23 07:31:54;;;;;;;194.07;96.63;;;10.30;99.90;;;;;;5033821;28;20133;-76
2023/02/23 07:34:21;;;;;;;194.57;96.78;;;10.30;99.90;;;;;;5034270;28;20025;-76
2023/02/23 07:36:46;;;;;;;195.43;98.95;;;10.30;99.90;;;;;;5017851;28;20079;-76
2023/02/23 07:39:13;;;;;;;208.65;100.13;;;10.30;99.90;;;;;;5014353;28;20029;-76
2023/02/23 07:41:38;;;;;;;195.50;99.72;;;10.20;99.90;;;;;;5039740;28;20124;-76
2023/02/23 07:44:04;;;;;;;201.32;100.18;;;10.20;99.90;;;;;;5033314;28;20105;-76
2023/02/23 07:46:30;;;;;;;202.35;99.68;;;10.20;99.90;;;;;;5016056;28;20045;-76
2023/02/23 07:48:55;;;;;;;205.65;99.13;;;10.20;99.90;;;;;;5034057;28;20041;-76
2023/02/23 07:51:21;;;;;;;205.13;99.18;;;10.20;99.90;;;;;;5033908;28;20025;-76
2023/02/23 07:53:47;;;;;;;202.85;101.95;;;10.30;99.90;;;;;;5033788;28;20022;-76
2023/02/23 07:56:13;;;;;;;203.52;100.38;;;10.20;99.90;;;;;;5033902;28;20466;-76
2023/02/23 07:58:41;;;;;;;208.07;98.47;;;10.30;99.90;;;;;;5033471;28;20084;-76
2023/02/23 08:01:07;;;;;;;206.70;98.85;;;10.30;99.90;;;;;;5001084;28;20405;-76
2023/02/23 08:03:33;;;;;;;191.25;96.57;;;10.40;99.90;;;;;;5033187;28;20038;-76
2023/02/23 08:05:59;;;;;;;202.82;100.63;;;10.40;99.90;;;;;;5015896;28;20025;-76
2023/02/23 08:08:25;;;;;;;198.30;98.28;;;10.40;99.90;;;;;;5033539;28;20029;-76
2023/02/23 08:10:59;;;;;;;196.07;97.05;;;10.50;99.90;;;;;;5025773;28;20034;-76
2023/02/23 08:13:24;;;;;;;206.75;99.82;;;10.50;99.90;;;;;;5032717;28;20014;-76
2023/02/23 08:15:50;;;;;;;202.18;99.38;;;10.50;99.90;;;;;;5033373;28;20378;-76
2023/02/23 08:18:16;;;;;;;193.15;97.70;;;10.60;99.90;;;;;;5032699;28;20025;-76
2023/02/23 08:20:42;;;;;;;201.57;100.00;;;10.60;99.90;;;;;;5032388;28;20056;-76
2023/02/23 08:23:07;;;;;;;191.43;98.40;;;10.60;99.90;;;;;;5006520;28;20111;-76
2023/02/23 08:25:34;;;;;;;196.63;97.10;;;10.50;99.90;;;;;;5031972;28;20030;-76
2023/02/23 08:28:03;;;;;;;201.48;100.53;;;10.60;99.90;;;;;;5032147;28;20030;-76
2023/02/23 08:30:29;;;;;;;198.50;98.97;;;10.60;99.90;;;;;;5028224;28;20088;-76
2023/02/23 08:32:55;;;;;;;201.05;99.90;;;10.70;99.90;;;;;;5013935;28;20527;-76
2023/02/23 08:35:21;;;;;;;191.38;94.35;;;10.70;99.90;;;;;;5031480;28;20083;-76
2023/02/23 08:37:47;;;;;;;198.23;96.85;;;10.70;99.90;;;;;;5031416;28;20025;-76
2023/02/23 08:40:14;;;;;;;205.88;101.18;;;10.80;99.90;;;;;;5031369;28;20029;-76
2023/02/23 08:42:41;;;;;;;197.68;99.38;;;10.80;99.90;;;;;;5022108;28;20355;-77
2023/02/23 08:45:07;;;;;;;205.02;102.93;;;10.80;99.90;;;;;;5030901;28;20502;-76
2023/02/23 08:47:33;;;;;;;199.02;101.22;;;10.80;99.90;;;;;;5031721;28;20029;-76
2023/02/23 08:49:59;;;;;;;204.32;102.38;;;10.90;99.90;;;;;;5020481;28;20444;-76
2023/02/23 08:52:25;;;;;;;208.65;102.40;;;10.90;99.90;;;;;;5031939;28;20017;-76
2023/02/23 08:54:50;;;;;;;207.23;101.57;;;10.90;99.90;;;;;;5031475;28;20026;-76
2023/02/23 08:57:17;;;;;;;211.05;102.32;;;10.90;99.90;;;;;;5031568;28;20027;-76
2023/02/23 08:59:42;;;;;;;203.30;102.13;;;10.90;99.90;;;;;;5029737;28;20053;-76
2023/02/23 09:02:12;;;;;;;194.88;102.72;;;11.00;99.90;;;;;;5026217;28;20037;-76
2023/02/23 09:04:40;;;;;;;202.60;100.95;;;10.90;99.90;;;;;;5031771;28;20064;-76
2023/02/23 09:07:09;;;;;;;202.38;101.57;;;10.90;99.90;;;;;;5046952;28;20057;-76
2023/02/23 09:09:34;;;;;;;211.25;103.93;;;11.00;99.90;;;;;;5022587;28;20064;-76
2023/02/23 09:12:00;;;;;;;202.93;102.80;;;11.00;99.90;;;;;;5031564;28;20132;-76
2023/02/23 09:14:26;;;;;;;221.52;108.20;;;11.00;99.90;;;;;;5031635;28;20485;-76
2023/02/23 09:16:52;;;;;;;212.27;105.88;;;11.10;99.90;;;;;;5031712;28;20104;-76
2023/02/23 09:19:19;;;;;;;209.90;105.88;;;11.00;99.90;;;;;;5031837;28;20105;-76
2023/02/23 09:21:44;;;;;;;216.88;104.90;;;11.10;99.90;;;;;;5031637;28;20032;-76
2023/02/23 09:24:10;;;;;;;208.95;103.72;;;11.10;99.90;;;;;;5031623;28;20025;-76
2023/02/23 09:26:38;;;;;;;221.07;103.20;;;11.10;99.90;;;;;;5031585;28;20077;-76
2023/02/23 09:29:05;;;;;;;206.77;107.20;;;11.10;99.90;;;;;;5031529;28;20029;-79
2023/02/23 09:31:32;;;;;;;213.50;102.60;;;11.10;99.90;;;;;;5013482;28;20385;-76
2023/02/23 09:33:59;;;;;;;214.07;104.25;;;11.10;99.90;;;;;;5031417;28;20033;-76
2023/02/23 09:36:26;;;;;;;199.60;100.38;;;11.10;99.90;;;;;;5031679;28;20022;-76
2023/02/23 09:38:55;;;;;;;212.50;105.03;;;11.10;99.90;;;;;;5031254;28;20386;-77
2023/02/23 09:41:38;;;;;;;206.75;104.68;;;11.10;99.90;;;;;;5031203;28;20060;-76
2023/02/23 09:44:29;;;;;;;210.23;106.57;;;11.20;99.90;;;;;;5012155;28;20041;-76
2023/02/23 09:47:04;;;;;;;207.70;102.65;;;11.20;99.90;;;;;;5012401;28;20485;-76
2023/02/23 09:49:36;;;;;;;204.45;103.55;;;11.20;99.90;;;;;;5025476;28;20535;-76
2023/02/23 09:52:03;;;;;;;216.90;102.78;;;11.20;99.90;;;;;;5031190;28;20033;-76
2023/02/23 09:54:34;;;;;;;206.85;103.80;;;11.20;99.90;;;;;;5031189;28;20076;-76
2023/02/23 09:57:05;;;;;;;204.00;105.60;;;11.30;99.90;;;;;;5031493;28;20049;-76
2023/02/23 09:59:31;;;;;;;201.75;102.85;;;11.20;99.90;;;;;;4993014;28;20461;-76
2023/02/23 10:02:21;;;;;;;205.73;102.45;;;11.30;99.90;;;;;;5003054;28;20498;-76
2023/02/23 10:04:51;;;;;;;208.65;102.68;;;11.30;99.90;;;;;;4988435;28;20084;-76
2023/02/23 10:07:58;;;;;;;215.82;104.55;;;11.30;99.90;;;;;;4994505;28;20042;-76
2023/02/23 10:10:52;;;;;;;204.02;100.68;;;11.30;99.90;;;;;;4991997;28;20117;-76
2023/02/23 10:13:38;;;;;;;203.45;101.78;;;11.30;99.90;;;;;;5007828;28;20037;-76
2023/02/23 10:16:22;;;;;;;206.25;100.18;;;11.20;99.90;;;;;;4992796;28;20084;-76
2023/02/23 10:18:59;;;;;;;212.50;100.25;;;11.20;99.90;;;;;;5007360;28;20030;-76
2023/02/23 10:21:37;;;;;;;201.35;101.28;;;11.30;99.90;;;;;;4995326;28;20027;-76
2023/02/23 10:24:19;;;;;;;206.73;103.55;;;11.20;99.90;;;;;;4993179;28;20106;-76
2023/02/23 10:26:52;;;;;;;200.95;98.32;;;11.30;99.90;;;;;;4992192;28;20038;-76
2023/02/23 10:29:21;;;;;;;196.60;102.72;;;11.30;99.90;;;;;;4995080;28;20398;-77
2023/02/23 10:31:51;;;;;;;198.60;101.00;;;11.30;99.90;;;;;;4991249;28;20073;-76
2023/02/23 10:34:17;;;;;;;202.98;102.75;;;11.30;99.90;;;;;;4994997;28;20486;-76
2023/02/23 10:37:02;;;;;;;203.95;100.72;;;11.40;99.90;;;;;;4995076;28;20049;-77
2023/02/23 10:39:32;;;;;;;192.30;98.10;;;11.40;99.90;;;;;;4993199;28;20022;-76
2023/02/23 10:42:04;;;;;;;197.27;100.43;;;11.40;99.90;;;;;;4994635;28;20549;-77
2023/02/23 10:44:30;;;;;;;199.55;100.82;;;11.40;99.90;;;;;;4994665;28;20022;-76
2023/02/23 10:47:16;;;;;;;189.73;101.80;;;11.40;99.90;;;;;;4994882;28;20034;-76
2023/02/23 10:49:48;;;;;;;192.75;97.82;;;11.50;99.90;;;;;;4993168;28;20034;-76
2023/02/23 10:52:18;;;;;;;210.85;102.78;;;11.50;99.90;;;;;;5005998;28;20084;-76
2023/02/23 10:54:48;;;;;;;205.05;100.97;;;11.50;99.90;;;;;;4994634;28;20034;-76
2023/02/23 10:57:26;;;;;;;197.50;99.20;;;11.60;99.90;;;;;;5009936;28;20110;-76
2023/02/23 11:00:15;;;;;;;195.82;94.60;;;11.70;99.90;;;;;;4988814;28;20034;-76
2023/02/23 11:02:42;;;;;;;198.55;97.30;;;11.70;99.90;;;;;;4993702;28;20077;-77
2023/02/23 11:05:56;;;;;;;189.93;96.80;;;11.70;99.90;;;;;;4994568;28;20023;-76
2023/02/23 11:08:29;;;;;;;189.27;98.38;;;11.70;99.90;;;;;;4983459;28;20031;-77
2023/02/23 11:11:08;;;;;;;213.23;99.03;;;11.70;99.90;;;;;;4991059;28;20038;-76
2023/02/23 11:13:37;;;;;;;204.15;99.00;;;11.80;99.90;;;;;;4990020;28;20407;-76
2023/02/23 11:16:17;;;;;;;201.15;95.38;;;11.80;99.90;;;;;;4994313;28;20490;-76
2023/02/23 11:18:55;;;;;;;196.93;95.68;;;11.90;99.90;;;;;;4994328;28;20030;-76
2023/02/23 11:21:22;;;;;;;188.45;93.05;;;11.90;99.90;;;;;;4994236;28;20031;-76
2023/02/23 11:23:52;;;;;;;182.60;95.68;;;11.90;99.90;;;;;;4994177;28;20049;-76
2023/02/23 11:26:23;;;;;;;200.02;100.15;;;11.90;99.90;;;;;;4994034;28;20483;-76
2023/02/23 11:28:52;;;;;;;187.18;97.63;;;12.00;99.90;;;;;;5001474;28;20568;-76
2023/02/23 11:31:21;;;;;;;190.30;95.70;;;12.00;99.90;;;;;;4989238;28;20052;-76
2023/02/23 11:33:48;;;;;;;190.63;92.50;;;12.00;99.90;;;;;;4991072;28;20161;-76
2023/02/23 11:36:26;;;;;;;202.25;96.78;;;12.10;99.90;;;;;;4992273;28;20022;-76
2023/02/23 11:39:20;;;;;;;210.35;97.10;;;12.00;99.90;;;;;;4989536;28;20410;-76
2023/02/23 11:42:02;;;;;;;208.10;103.22;;;12.10;99.90;;;;;;4988864;28;20058;-76
2023/02/23 11:44:28;;;;;;;204.93;101.97;;;12.20;99.90;;;;;;4990798;28;20037;-76
2023/02/23 11:46:53;;;;;;;194.98;96.28;;;12.20;99.90;;;;;;4993687;28;20031;-76
2023/02/23 11:49:29;;;;;;;195.40;95.85;;;12.20;99.90;;;;;;4993385;28;20518;-76
2023/02/23 11:51:55;;;;;;;194.85;98.63;;;12.20;99.90;;;;;;4974960;28;20031;-76
2023/02/23 11:54:26;;;;;;;199.10;96.32;;;12.20;99.90;;;;;;4988783;28;20019;-76
2023/02/23 11:56:54;;;;;;;193.40;100.55;;;12.20;99.90;;;;;;4994349;28;20019;-76
2023/02/23 11:59:27;;;;;;;198.63;96.47;;;12.20;99.90;;;;;;5025387;28;20045;-76
2023/02/23 12:02:04;;;;;;;195.00;96.78;;;12.30;99.90;;;;;;5033741;28;20057;-76
2023/02/23 12:04:33;;;;;;;214.00;98.05;;;12.30;99.90;;;;;;5004770;28;20034;-76
2023/02/23 12:07:42;;;;;;;196.75;97.78;;;12.30;99.90;;;;;;5033187;28;20025;-76
2023/02/23 12:10:28;;;;;;;193.45;95.63;;;12.40;99.90;;;;;;5028139;28;20038;-76
2023/02/23 12:13:01;;;;;;;194.20;93.75;;;12.40;99.90;;;;;;5015895;28;20032;-76
2023/02/23 12:15:49;;;;;;;191.68;94.78;;;12.30;99.90;;;;;;5033360;28;20407;-76
2023/02/23 12:18:30;;;;;;;188.40;97.45;;;12.40;99.90;;;;;;5004982;28;20038;-76
2023/02/23 12:21:03;;;;;;;197.75;96.53;;;12.40;99.90;;;;;;5033331;28;20538;-76
2023/02/23 12:23:36;;;;;;;203.25;95.60;;;12.40;99.90;;;;;;5033350;28;20032;-76
2023/02/23 12:26:16;;;;;;;194.40;95.65;;;12.40;99.90;;;;;;5015758;28;20461;-76
2023/02/23 12:28:53;;;;;;;197.40;96.95;;;12.40;99.90;;;;;;5025160;28;20033;-76
2023/02/23 12:31:39;;;;;;;187.65;93.68;;;12.40;99.90;;;;;;5021653;28;20195;-76
2023/02/23 12:34:18;;;;;;;190.50;94.65;;;12.50;99.90;;;;;;5032435;28;20369;-76
2023/02/23 12:37:23;;;;;;;193.07;94.15;;;12.50;99.90;;;;;;5032963;28;20048;-76
2023/02/23 12:39:57;;;;;;;191.18;92.15;;;12.60;99.90;;;;;;5011776;28;20061;-76
2023/02/23 12:42:28;;;;;;;193.73;93.53;;;12.60;99.90;;;;;;5033209;28;20113;-76
2023/02/23 12:45:01;;;;;;;190.75;93.18;;;12.70;99.90;;;;;;5015334;28;20029;-76
2023/02/23 12:47:44;;;;;;;202.70;95.93;;;12.60;99.90;;;;;;5033038;28;20412;-76
2023/02/23 12:50:26;;;;;;;;;;;12.70;99.90;;;;;;5032621;28;20489;-76
2023/02/23 12:52:58;;;;;;;180.80;89.38;;;12.70;99.90;;;;;;5028945;28;19905;-77
2023/02/23 12:56:03;;;;;;;196.57;96.15;;;12.60;99.90;;;;;;5031513;28;20450;-77
2023/02/23 12:59:12;;;;;;;185.77;93.72;;;12.70;99.90;;;;;;5008823;28;20587;-76
2023/02/23 13:02:02;;;;;;;187.27;90.25;;;12.70;99.90;;;;;;5027082;28;20030;-76
2023/02/23 13:05:01;;;;;;;186.50;93.85;;;12.60;99.90;;;;;;5028437;28;20018;-76
2023/02/23 13:07:45;;;;;;;187.02;92.22;;;12.60;99.90;;;;;;5029811;28;20021;-76
2023/02/23 13:10:29;;;;;;;194.07;94.72;;;12.60;99.90;;;;;;5011602;28;20031;-76
2023/02/23 13:13:10;;;;;;;185.43;93.18;;;12.60;99.90;;;;;;5028202;28;20026;-76
2023/02/23 13:16:03;;;;;;;192.57;97.80;;;12.60;99.90;;;;;;5026829;28;20460;-76
2023/02/23 13:18:40;;;;;;;202.48;97.82;;;12.60;99.90;;;;;;5010396;28;20048;-76
2023/02/23 13:21:29;;;;;;;191.00;93.75;;;12.60;99.90;;;;;;5030914;28;20029;-76
2023/02/23 13:24:05;;;;;;;198.20;96.13;;;12.60;99.90;;;;;;5010139;28;20034;-77
2023/02/23 13:26:40;;;;;;;193.23;93.65;;;12.60;99.90;;;;;;5031180;28;20378;-76
2023/02/23 13:29:24;;;;;;;192.50;93.43;;;12.70;99.90;;;;;;5027964;28;20107;-76
2023/02/23 13:31:51;;;;;;;193.90;97.60;;;12.70;99.90;;;;;;5029784;28;20086;-76
2023/02/23 13:34:25;;;;;;;204.35;98.72;;;12.70;99.90;;;;;;5013677;28;20160;-77
2023/02/23 13:36:52;;;;;;;200.70;96.90;;;12.70;99.90;;;;;;5022557;28;20033;-76
2023/02/23 13:39:37;;;;;;;188.60;94.50;;;12.70;99.90;;;;;;5031605;28;20018;-76
2023/02/23 13:42:27;;;;;;;196.80;98.40;;;12.70;99.90;;;;;;5035275;28;20362;-77
2023/02/23 13:45:11;;;;;;;197.80;96.53;;;12.70;99.90;;;;;;5035112;28;20112;-76
2023/02/23 13:47:44;;;;;;;202.95;96.38;;;12.70;99.90;;;;;;5014296;28;20544;-76
2023/02/23 13:50:45;;;;;;;198.18;93.53;;;12.70;99.90;;;;;;5035230;28;20056;-76
2023/02/23 13:53:41;;;;;;;192.20;93.93;;;12.70;99.90;;;;;;5029916;28;20017;-76
2023/02/23 13:56:20;;;;;;;190.75;92.25;;;12.70;99.90;;;;;;5031418;28;20028;-76
2023/02/23 13:58:59;;;;;;;181.43;89.95;;;12.60;99.90;;;;;;5017311;28;20046;-76